sensor_id;sensor_type;location;lat;lon;timestamp;P1;durP1;ratioP1;P2;durP2;ratioP2
18286;SDS011;9269;50.838;12.094;2023-02-28T00:02:21;7.17;;;5.70;;
18286;SDS011;9269;50.838;12.094;2023-02-28T00:04:51;6.10;;;5.50;;
18286;SDS011;9269;50.838;12.094;2023-02-28T00:07:27;6.70;;;5.40;;
18286;SDS011;9269;50.838;12.094;2023-02-28T00:09:56;6.63;;;5.90;;
18286;SDS011;9269;50.838;12.094;2023-02-28T00:12:25;6.40;;;5.73;;
18286;SDS011;9269;50.838;12.094;2023-02-28T00:14:55;6.30;;;5.70;;
18286;SDS011;9269;50.838;12.094;2023-02-28T00:17:23;6.37;;;5.67;;
18286;SDS011;9269;50.838;12.094;2023-02-28T00:19:52;6.43;;;5.77;;
18286;SDS011;9269;50.838;12.094;2023-02-28T00:22:21;6.37;;;5.77;;
18286;SDS011;9269;50.838;12.094;2023-02-28T00:24:49;7.30;;;6.60;;
18286;SDS011;9269;50.838;12.094;2023-02-28T00:27:18;7.07;;;6.17;;
18286;SDS011;9269;50.838;12.094;2023-02-28T00:29:47;5.67;;;5.17;;
18286;SDS011;9269;50.838;12.094;2023-02-28T00:32:16;6.73;;;6.07;;
18286;SDS011;9269;50.838;12.094;2023-02-28T00:34:45;6.33;;;5.73;;
18286;SDS011;9269;50.838;12.094;2023-02-28T00:37:14;7.03;;;6.00;;
18286;SDS011;9269;50.838;12.094;2023-02-28T00:39:42;6.80;;;5.87;;
18286;SDS011;9269;50.838;12.094;2023-02-28T00:42:10;6.30;;;5.70;;
18286;SDS011;9269;50.838;12.094;2023-02-28T00:44:39;8.13;;;6.90;;
18286;SDS011;9269;50.838;12.094;2023-02-28T00:47:07;8.47;;;7.10;;
18286;SDS011;9269;50.838;12.094;2023-02-28T00:49:36;7.80;;;6.47;;
18286;SDS011;9269;50.838;12.094;2023-02-28T00:52:05;6.77;;;6.07;;
18286;SDS011;9269;50.838;12.094;2023-02-28T00:54:33;7.03;;;6.33;;
18286;SDS011;9269;50.838;12.094;2023-02-28T00:57:02;7.77;;;6.93;;
18286;SDS011;9269;50.838;12.094;2023-02-28T00:59:30;6.20;;;5.63;;
18286;SDS011;9269;50.838;12.094;2023-02-28T01:01:59;7.10;;;6.40;;
18286;SDS011;9269;50.838;12.094;2023-02-28T01:04:27;6.83;;;5.73;;
18286;SDS011;9269;50.838;12.094;2023-02-28T01:06:57;6.37;;;5.77;;
18286;SDS011;9269;50.838;12.094;2023-02-28T01:09:25;6.60;;;5.77;;
18286;SDS011;9269;50.838;12.094;2023-02-28T01:11:53;6.80;;;6.07;;
18286;SDS011;9269;50.838;12.094;2023-02-28T01:14:22;6.87;;;5.43;;
18286;SDS011;9269;50.838;12.094;2023-02-28T01:16:50;6.00;;;5.40;;
18286;SDS011;9269;50.838;12.094;2023-02-28T01:19:19;7.07;;;5.73;;
18286;SDS011;9269;50.838;12.094;2023-02-28T01:21:47;6.00;;;5.50;;
18286;SDS011;9269;50.838;12.094;2023-02-28T01:24:17;5.93;;;5.33;;
18286;SDS011;9269;50.838;12.094;2023-02-28T01:26:45;6.00;;;5.40;;
18286;SDS011;9269;50.838;12.094;2023-02-28T01:29:14;6.80;;;5.90;;
18286;SDS011;9269;50.838;12.094;2023-02-28T01:31:44;6.57;;;5.87;;
18286;SDS011;9269;50.838;12.094;2023-02-28T01:34:12;6.10;;;5.50;;
18286;SDS011;9269;50.838;12.094;2023-02-28T01:36:40;6.17;;;5.67;;
18286;SDS011;9269;50.838;12.094;2023-02-28T01:39:09;6.13;;;5.30;;
18286;SDS011;9269;50.838;12.094;2023-02-28T01:41:39;6.27;;;5.67;;
18286;SDS011;9269;50.838;12.094;2023-02-28T01:44:53;6.50;;;5.80;;
18286;SDS011;9269;50.838;12.094;2023-02-28T01:47:15;6.07;;;5.40;;
18286;SDS011;9269;50.838;12.094;2023-02-28T01:49:44;5.93;;;5.33;;
18286;SDS011;9269;50.838;12.094;2023-02-28T01:52:12;6.47;;;5.70;;
18286;SDS011;9269;50.838;12.094;2023-02-28T01:54:45;7.87;;;5.27;;
18286;SDS011;9269;50.838;12.094;2023-02-28T01:57:18;6.33;;;5.73;;
18286;SDS011;9269;50.838;12.094;2023-02-28T01:59:50;6.03;;;5.47;;
18286;SDS011;9269;50.838;12.094;2023-02-28T02:02:23;6.20;;;5.60;;
18286;SDS011;9269;50.838;12.094;2023-02-28T02:04:53;5.73;;;5.13;;
18286;SDS011;9269;50.838;12.094;2023-02-28T02:07:25;5.90;;;5.20;;
18286;SDS011;9269;50.838;12.094;2023-02-28T02:09:59;6.37;;;5.00;;
18286;SDS011;9269;50.838;12.094;2023-02-28T02:12:31;5.87;;;5.30;;
18286;SDS011;9269;50.838;12.094;2023-02-28T02:15:11;6.50;;;5.27;;
18286;SDS011;9269;50.838;12.094;2023-02-28T02:17:45;7.00;;;5.10;;
18286;SDS011;9269;50.838;12.094;2023-02-28T02:20:33;7.57;;;5.70;;
18286;SDS011;9269;50.838;12.094;2023-02-28T02:23:22;6.93;;;5.50;;
18286;SDS011;9269;50.838;12.094;2023-02-28T02:26:28;7.37;;;6.07;;
18286;SDS011;9269;50.838;12.094;2023-02-28T02:32:19;6.73;;;6.03;;
18286;SDS011;9269;50.838;12.094;2023-02-28T02:35:05;7.27;;;6.27;;
18286;SDS011;9269;50.838;12.094;2023-02-28T02:37:40;8.30;;;7.27;;
18286;SDS011;9269;50.838;12.094;2023-02-28T02:40:17;9.23;;;7.30;;
18286;SDS011;9269;50.838;12.094;2023-02-28T02:42:49;8.27;;;7.07;;
18286;SDS011;9269;50.838;12.094;2023-02-28T02:45:24;6.80;;;6.10;;
18286;SDS011;9269;50.838;12.094;2023-02-28T02:47:56;8.20;;;6.70;;
18286;SDS011;9269;50.838;12.094;2023-02-28T02:50:29;8.50;;;7.33;;
18286;SDS011;9269;50.838;12.094;2023-02-28T02:53:02;7.53;;;6.73;;
18286;SDS011;9269;50.838;12.094;2023-02-28T02:55:33;7.67;;;6.47;;
18286;SDS011;9269;50.838;12.094;2023-02-28T02:58:04;7.60;;;6.90;;
18286;SDS011;9269;50.838;12.094;2023-02-28T03:00:38;7.53;;;6.37;;
18286;SDS011;9269;50.838;12.094;2023-02-28T03:03:11;7.63;;;6.87;;
18286;SDS011;9269;50.838;12.094;2023-02-28T03:05:43;6.90;;;6.20;;
18286;SDS011;9269;50.838;12.094;2023-02-28T03:08:14;8.00;;;6.23;;
18286;SDS011;9269;50.838;12.094;2023-02-28T03:10:44;7.90;;;5.87;;
18286;SDS011;9269;50.838;12.094;2023-02-28T03:13:25;8.63;;;5.67;;
18286;SDS011;9269;50.838;12.094;2023-02-28T03:19:16;7.80;;;6.00;;
18286;SDS011;9269;50.838;12.094;2023-02-28T03:21:56;6.47;;;5.80;;
18286;SDS011;9269;50.838;12.094;2023-02-28T03:24:35;6.73;;;5.80;;
18286;SDS011;9269;50.838;12.094;2023-02-28T03:27:11;7.10;;;6.40;;
18286;SDS011;9269;50.838;12.094;2023-02-28T03:29:46;8.03;;;5.93;;
18286;SDS011;9269;50.838;12.094;2023-02-28T03:32:19;6.57;;;5.87;;
18286;SDS011;9269;50.838;12.094;2023-02-28T03:34:54;7.57;;;5.93;;
18286;SDS011;9269;50.838;12.094;2023-02-28T03:37:27;6.87;;;6.17;;
18286;SDS011;9269;50.838;12.094;2023-02-28T03:39:59;7.30;;;6.37;;
18286;SDS011;9269;50.838;12.094;2023-02-28T03:42:34;7.00;;;6.07;;
18286;SDS011;9269;50.838;12.094;2023-02-28T03:45:08;7.93;;;6.30;;
18286;SDS011;9269;50.838;12.094;2023-02-28T03:47:41;7.73;;;6.23;;
18286;SDS011;9269;50.838;12.094;2023-02-28T03:50:15;7.90;;;6.70;;
18286;SDS011;9269;50.838;12.094;2023-02-28T03:52:50;7.27;;;6.27;;
18286;SDS011;9269;50.838;12.094;2023-02-28T03:55:28;8.63;;;6.17;;
18286;SDS011;9269;50.838;12.094;2023-02-28T03:58:01;6.37;;;5.73;;
18286;SDS011;9269;50.838;12.094;2023-02-28T04:00:37;7.63;;;6.17;;
18286;SDS011;9269;50.838;12.094;2023-02-28T04:03:07;8.10;;;6.67;;
18286;SDS011;9269;50.838;12.094;2023-02-28T04:05:43;8.67;;;6.47;;
18286;SDS011;9269;50.838;12.094;2023-02-28T04:08:17;7.97;;;5.97;;
18286;SDS011;9269;50.838;12.094;2023-02-28T04:10:47;8.37;;;6.47;;
18286;SDS011;9269;50.838;12.094;2023-02-28T04:13:21;7.73;;;6.23;;
18286;SDS011;9269;50.838;12.094;2023-02-28T04:15:49;6.47;;;5.80;;
18286;SDS011;9269;50.838;12.094;2023-02-28T04:18:18;6.23;;;5.43;;
18286;SDS011;9269;50.838;12.094;2023-02-28T04:20:46;7.47;;;6.27;;
18286;SDS011;9269;50.838;12.094;2023-02-28T04:23:14;6.93;;;6.23;;
18286;SDS011;9269;50.838;12.094;2023-02-28T04:25:44;6.37;;;5.70;;
18286;SDS011;9269;50.838;12.094;2023-02-28T04:28:12;7.90;;;6.23;;
18286;SDS011;9269;50.838;12.094;2023-02-28T04:30:41;7.30;;;6.30;;
18286;SDS011;9269;50.838;12.094;2023-02-28T04:33:09;7.30;;;6.60;;
18286;SDS011;9269;50.838;12.094;2023-02-28T04:35:37;7.03;;;6.33;;
18286;SDS011;9269;50.838;12.094;2023-02-28T04:38:06;7.83;;;6.50;;
18286;SDS011;9269;50.838;12.094;2023-02-28T04:40:35;9.87;;;6.43;;
18286;SDS011;9269;50.838;12.094;2023-02-28T04:43:04;8.33;;;6.43;;
18286;SDS011;9269;50.838;12.094;2023-02-28T04:45:33;7.20;;;6.10;;
18286;SDS011;9269;50.838;12.094;2023-02-28T04:48:02;7.03;;;6.33;;
18286;SDS011;9269;50.838;12.094;2023-02-28T04:50:30;9.30;;;6.80;;
18286;SDS011;9269;50.838;12.094;2023-02-28T04:52:59;7.37;;;6.10;;
18286;SDS011;9269;50.838;12.094;2023-02-28T04:55:27;7.50;;;6.67;;
18286;SDS011;9269;50.838;12.094;2023-02-28T04:57:56;6.90;;;6.20;;
18286;SDS011;9269;50.838;12.094;2023-02-28T05:00:25;7.07;;;6.27;;
18286;SDS011;9269;50.838;12.094;2023-02-28T05:02:54;8.83;;;6.70;;
18286;SDS011;9269;50.838;12.094;2023-02-28T05:05:22;6.63;;;5.93;;
18286;SDS011;9269;50.838;12.094;2023-02-28T05:07:50;8.03;;;6.00;;
18286;SDS011;9269;50.838;12.094;2023-02-28T05:10:20;7.20;;;6.27;;
18286;SDS011;9269;50.838;12.094;2023-02-28T05:12:49;7.17;;;6.47;;
18286;SDS011;9269;50.838;12.094;2023-02-28T05:15:17;6.93;;;6.13;;
18286;SDS011;9269;50.838;12.094;2023-02-28T05:17:47;8.87;;;6.47;;
18286;SDS011;9269;50.838;12.094;2023-02-28T05:20:16;7.10;;;6.17;;
18286;SDS011;9269;50.838;12.094;2023-02-28T05:22:44;6.63;;;5.93;;
18286;SDS011;9269;50.838;12.094;2023-02-28T05:25:15;7.60;;;6.50;;
18286;SDS011;9269;50.838;12.094;2023-02-28T05:27:45;9.60;;;7.00;;
18286;SDS011;9269;50.838;12.094;2023-02-28T05:30:14;9.77;;;7.30;;
18286;SDS011;9269;50.838;12.094;2023-02-28T05:32:43;8.67;;;7.03;;
18286;SDS011;9269;50.838;12.094;2023-02-28T05:35:19;8.67;;;6.97;;
18286;SDS011;9269;50.838;12.094;2023-02-28T05:37:49;7.03;;;6.27;;
18286;SDS011;9269;50.838;12.094;2023-02-28T05:40:18;8.77;;;6.77;;
18286;SDS011;9269;50.838;12.094;2023-02-28T05:42:48;7.10;;;6.20;;
18286;SDS011;9269;50.838;12.094;2023-02-28T05:45:19;6.97;;;6.07;;
18286;SDS011;9269;50.838;12.094;2023-02-28T05:47:48;9.17;;;7.10;;
18286;SDS011;9269;50.838;12.094;2023-02-28T05:50:16;8.10;;;6.40;;
18286;SDS011;9269;50.838;12.094;2023-02-28T05:52:49;8.70;;;6.53;;
18286;SDS011;9269;50.838;12.094;2023-02-28T05:55:20;8.07;;;6.90;;
18286;SDS011;9269;50.838;12.094;2023-02-28T05:57:48;9.07;;;7.13;;
18286;SDS011;9269;50.838;12.094;2023-02-28T06:00:17;7.97;;;6.43;;
18286;SDS011;9269;50.838;12.094;2023-02-28T06:02:46;9.43;;;7.33;;
18286;SDS011;9269;50.838;12.094;2023-02-28T06:05:16;7.57;;;6.77;;
18286;SDS011;9269;50.838;12.094;2023-02-28T06:07:46;8.20;;;7.00;;
18286;SDS011;9269;50.838;12.094;2023-02-28T06:10:16;10.53;;;8.10;;
18286;SDS011;9269;50.838;12.094;2023-02-28T06:12:44;9.93;;;7.97;;
18286;SDS011;9269;50.838;12.094;2023-02-28T06:15:14;10.07;;;7.33;;
18286;SDS011;9269;50.838;12.094;2023-02-28T06:17:44;9.40;;;7.57;;
18286;SDS011;9269;50.838;12.094;2023-02-28T06:20:12;8.77;;;7.90;;
18286;SDS011;9269;50.838;12.094;2023-02-28T06:22:41;9.00;;;7.77;;
18286;SDS011;9269;50.838;12.094;2023-02-28T06:25:10;9.30;;;7.50;;
18286;SDS011;9269;50.838;12.094;2023-02-28T06:27:40;8.30;;;6.80;;
18286;SDS011;9269;50.838;12.094;2023-02-28T06:30:10;10.03;;;7.17;;
18286;SDS011;9269;50.838;12.094;2023-02-28T06:32:39;10.60;;;7.47;;
18286;SDS011;9269;50.838;12.094;2023-02-28T06:35:08;8.97;;;7.80;;
18286;SDS011;9269;50.838;12.094;2023-02-28T06:37:37;9.67;;;7.27;;
18286;SDS011;9269;50.838;12.094;2023-02-28T06:40:08;8.50;;;7.20;;
18286;SDS011;9269;50.838;12.094;2023-02-28T06:42:37;9.80;;;7.67;;
18286;SDS011;9269;50.838;12.094;2023-02-28T06:45:07;7.70;;;6.87;;
18286;SDS011;9269;50.838;12.094;2023-02-28T06:47:40;10.67;;;7.20;;
18286;SDS011;9269;50.838;12.094;2023-02-28T06:50:10;12.27;;;7.80;;
18286;SDS011;9269;50.838;12.094;2023-02-28T06:52:40;8.80;;;7.00;;
18286;SDS011;9269;50.838;12.094;2023-02-28T06:55:08;10.13;;;7.60;;
18286;SDS011;9269;50.838;12.094;2023-02-28T06:57:37;9.97;;;7.40;;
18286;SDS011;9269;50.838;12.094;2023-02-28T07:00:06;11.20;;;7.60;;
18286;SDS011;9269;50.838;12.094;2023-02-28T07:02:38;12.00;;;6.80;;
18286;SDS011;9269;50.838;12.094;2023-02-28T07:05:07;11.23;;;8.33;;
18286;SDS011;9269;50.838;12.094;2023-02-28T07:07:38;9.77;;;7.00;;
18286;SDS011;9269;50.838;12.094;2023-02-28T07:10:11;10.37;;;7.53;;
18286;SDS011;9269;50.838;12.094;2023-02-28T07:12:40;12.17;;;7.97;;
18286;SDS011;9269;50.838;12.094;2023-02-28T07:15:10;9.63;;;7.07;;
18286;SDS011;9269;50.838;12.094;2023-02-28T07:17:39;8.50;;;7.53;;
18286;SDS011;9269;50.838;12.094;2023-02-28T07:20:07;11.37;;;7.93;;
18286;SDS011;9269;50.838;12.094;2023-02-28T07:22:37;9.57;;;7.97;;
18286;SDS011;9269;50.838;12.094;2023-02-28T07:25:06;14.10;;;8.43;;
18286;SDS011;9269;50.838;12.094;2023-02-28T07:27:34;10.60;;;8.10;;
18286;SDS011;9269;50.838;12.094;2023-02-28T07:30:03;17.00;;;10.70;;
18286;SDS011;9269;50.838;12.094;2023-02-28T07:32:34;13.03;;;8.93;;
18286;SDS011;9269;50.838;12.094;2023-02-28T07:35:04;11.83;;;8.40;;
18286;SDS011;9269;50.838;12.094;2023-02-28T07:37:33;11.67;;;8.17;;
18286;SDS011;9269;50.838;12.094;2023-02-28T07:40:03;10.23;;;8.13;;
18286;SDS011;9269;50.838;12.094;2023-02-28T07:42:35;10.03;;;8.00;;
18286;SDS011;9269;50.838;12.094;2023-02-28T07:45:04;10.23;;;8.17;;
18286;SDS011;9269;50.838;12.094;2023-02-28T07:47:34;13.60;;;9.23;;
18286;SDS011;9269;50.838;12.094;2023-02-28T07:50:03;16.97;;;10.80;;
18286;SDS011;9269;50.838;12.094;2023-02-28T07:52:32;13.43;;;9.70;;
18286;SDS011;9269;50.838;12.094;2023-02-28T07:55:00;16.13;;;10.43;;
18286;SDS011;9269;50.838;12.094;2023-02-28T07:57:29;11.30;;;8.60;;
18286;SDS011;9269;50.838;12.094;2023-02-28T07:59:59;14.73;;;9.63;;
18286;SDS011;9269;50.838;12.094;2023-02-28T08:02:30;11.10;;;8.70;;
18286;SDS011;9269;50.838;12.094;2023-02-28T08:05:00;16.53;;;11.13;;
18286;SDS011;9269;50.838;12.094;2023-02-28T08:07:29;10.67;;;9.43;;
18286;SDS011;9269;50.838;12.094;2023-02-28T08:09:59;10.00;;;8.83;;
18286;SDS011;9269;50.838;12.094;2023-02-28T08:12:28;12.30;;;9.03;;
18286;SDS011;9269;50.838;12.094;2023-02-28T08:14:57;9.93;;;8.43;;
18286;SDS011;9269;50.838;12.094;2023-02-28T08:17:25;13.10;;;9.50;;
18286;SDS011;9269;50.838;12.094;2023-02-28T08:19:53;11.50;;;9.53;;
18286;SDS011;9269;50.838;12.094;2023-02-28T08:22:23;12.90;;;10.30;;
18286;SDS011;9269;50.838;12.094;2023-02-28T08:24:51;11.20;;;9.00;;
18286;SDS011;9269;50.838;12.094;2023-02-28T08:27:20;12.63;;;9.70;;
18286;SDS011;9269;50.838;12.094;2023-02-28T08:29:49;12.17;;;9.07;;
18286;SDS011;9269;50.838;12.094;2023-02-28T08:32:17;12.13;;;9.20;;
18286;SDS011;9269;50.838;12.094;2023-02-28T08:34:59;12.00;;;9.07;;
18286;SDS011;9269;50.838;12.094;2023-02-28T08:37:30;11.93;;;9.03;;
18286;SDS011;9269;50.838;12.094;2023-02-28T08:39:58;10.77;;;9.67;;
18286;SDS011;9269;50.838;12.094;2023-02-28T08:42:26;11.13;;;9.70;;
18286;SDS011;9269;50.838;12.094;2023-02-28T08:44:55;10.83;;;9.73;;
18286;SDS011;9269;50.838;12.094;2023-02-28T08:47:23;10.30;;;8.87;;
18286;SDS011;9269;50.838;12.094;2023-02-28T08:49:52;13.23;;;9.10;;
18286;SDS011;9269;50.838;12.094;2023-02-28T08:52:21;10.97;;;8.87;;
18286;SDS011;9269;50.838;12.094;2023-02-28T08:54:51;14.10;;;8.47;;
18286;SDS011;9269;50.838;12.094;2023-02-28T08:57:20;11.70;;;8.10;;
18286;SDS011;9269;50.838;12.094;2023-02-28T08:59:48;10.57;;;9.43;;
18286;SDS011;9269;50.838;12.094;2023-02-28T09:02:16;9.37;;;8.37;;
18286;SDS011;9269;50.838;12.094;2023-02-28T09:04:45;10.40;;;8.53;;
18286;SDS011;9269;50.838;12.094;2023-02-28T09:07:13;10.07;;;8.10;;
18286;SDS011;9269;50.838;12.094;2023-02-28T09:09:42;9.90;;;8.63;;
18286;SDS011;9269;50.838;12.094;2023-02-28T09:12:22;11.33;;;8.73;;
18286;SDS011;9269;50.838;12.094;2023-02-28T09:14:51;10.53;;;8.70;;
18286;SDS011;9269;50.838;12.094;2023-02-28T09:17:20;10.23;;;8.37;;
18286;SDS011;9269;50.838;12.094;2023-02-28T09:19:57;10.80;;;8.20;;
18286;SDS011;9269;50.838;12.094;2023-02-28T09:22:26;9.47;;;8.10;;
18286;SDS011;9269;50.838;12.094;2023-02-28T09:24:59;9.17;;;7.60;;
18286;SDS011;9269;50.838;12.094;2023-02-28T09:27:29;9.97;;;8.37;;
18286;SDS011;9269;50.838;12.094;2023-02-28T09:29:58;9.43;;;8.43;;
18286;SDS011;9269;50.838;12.094;2023-02-28T09:32:28;8.80;;;7.43;;
18286;SDS011;9269;50.838;12.094;2023-02-28T09:34:57;10.20;;;7.83;;
18286;SDS011;9269;50.838;12.094;2023-02-28T09:37:25;9.30;;;8.13;;
18286;SDS011;9269;50.838;12.094;2023-02-28T09:39:55;9.83;;;8.83;;
18286;SDS011;9269;50.838;12.094;2023-02-28T09:42:25;11.87;;;8.70;;
18286;SDS011;9269;50.838;12.094;2023-02-28T09:45:02;9.30;;;7.43;;
18286;SDS011;9269;50.838;12.094;2023-02-28T09:47:38;9.63;;;8.23;;
18286;SDS011;9269;50.838;12.094;2023-02-28T09:50:13;8.77;;;7.60;;
18286;SDS011;9269;50.838;12.094;2023-02-28T09:52:49;9.57;;;7.87;;
18286;SDS011;9269;50.838;12.094;2023-02-28T09:55:19;10.23;;;7.77;;
18286;SDS011;9269;50.838;12.094;2023-02-28T09:57:53;9.13;;;8.17;;
18286;SDS011;9269;50.838;12.094;2023-02-28T10:00:24;7.93;;;7.13;;
18286;SDS011;9269;50.838;12.094;2023-02-28T10:03:06;9.97;;;7.90;;
18286;SDS011;9269;50.838;12.094;2023-02-28T10:05:51;8.83;;;7.80;;
18286;SDS011;9269;50.838;12.094;2023-02-28T10:08:22;10.07;;;7.77;;
18286;SDS011;9269;50.838;12.094;2023-02-28T10:10:55;7.93;;;7.13;;
18286;SDS011;9269;50.838;12.094;2023-02-28T10:13:33;8.77;;;7.63;;
18286;SDS011;9269;50.838;12.094;2023-02-28T10:16:08;9.73;;;8.23;;
18286;SDS011;9269;50.838;12.094;2023-02-28T10:18:42;8.70;;;7.80;;
18286;SDS011;9269;50.838;12.094;2023-02-28T10:21:17;8.87;;;7.37;;
18286;SDS011;9269;50.838;12.094;2023-02-28T10:23:49;8.63;;;7.33;;
18286;SDS011;9269;50.838;12.094;2023-02-28T10:26:25;8.57;;;7.60;;
18286;SDS011;9269;50.838;12.094;2023-02-28T10:28:58;8.03;;;7.20;;
18286;SDS011;9269;50.838;12.094;2023-02-28T10:31:26;9.37;;;7.37;;
18286;SDS011;9269;50.838;12.094;2023-02-28T10:33:55;8.07;;;7.27;;
18286;SDS011;9269;50.838;12.094;2023-02-28T10:36:23;8.63;;;7.30;;
18286;SDS011;9269;50.838;12.094;2023-02-28T10:38:52;8.50;;;7.57;;
18286;SDS011;9269;50.838;12.094;2023-02-28T10:41:28;7.70;;;6.90;;
18286;SDS011;9269;50.838;12.094;2023-02-28T10:44:17;7.63;;;6.83;;
18286;SDS011;9269;50.838;12.094;2023-02-28T10:46:48;8.17;;;6.90;;
18286;SDS011;9269;50.838;12.094;2023-02-28T10:49:19;7.17;;;6.40;;
18286;SDS011;9269;50.838;12.094;2023-02-28T10:51:50;8.33;;;7.13;;
18286;SDS011;9269;50.838;12.094;2023-02-28T10:54:22;8.00;;;6.90;;
18286;SDS011;9269;50.838;12.094;2023-02-28T10:57:15;8.83;;;7.27;;
18286;SDS011;9269;50.838;12.094;2023-02-28T10:59:47;8.13;;;7.30;;
18286;SDS011;9269;50.838;12.094;2023-02-28T11:02:31;9.47;;;7.30;;
18286;SDS011;9269;50.838;12.094;2023-02-28T11:05:02;8.83;;;6.80;;
18286;SDS011;9269;50.838;12.094;2023-02-28T11:07:52;9.30;;;7.17;;
18286;SDS011;9269;50.838;12.094;2023-02-28T11:10:23;9.37;;;7.57;;
18286;SDS011;9269;50.838;12.094;2023-02-28T11:12:56;9.20;;;7.43;;
18286;SDS011;9269;50.838;12.094;2023-02-28T11:15:28;9.10;;;8.07;;
18286;SDS011;9269;50.838;12.094;2023-02-28T11:17:59;9.70;;;8.27;;
18286;SDS011;9269;50.838;12.094;2023-02-28T11:20:31;9.13;;;8.23;;
18286;SDS011;9269;50.838;12.094;2023-02-28T11:23:03;9.37;;;8.17;;
18286;SDS011;9269;50.838;12.094;2023-02-28T11:25:34;9.70;;;8.07;;
18286;SDS011;9269;50.838;12.094;2023-02-28T11:28:06;8.80;;;7.70;;
18286;SDS011;9269;50.838;12.094;2023-02-28T11:31:00;10.83;;;7.83;;
18286;SDS011;9269;50.838;12.094;2023-02-28T11:33:37;9.13;;;8.07;;
18286;SDS011;9269;50.838;12.094;2023-02-28T11:36:11;11.30;;;9.10;;
18286;SDS011;9269;50.838;12.094;2023-02-28T11:38:44;10.27;;;7.83;;
18286;SDS011;9269;50.838;12.094;2023-02-28T11:41:18;9.93;;;8.47;;
18286;SDS011;9269;50.838;12.094;2023-02-28T11:44:11;9.60;;;8.30;;
18286;SDS011;9269;50.838;12.094;2023-02-28T11:46:54;9.80;;;8.73;;
18286;SDS011;9269;50.838;12.094;2023-02-28T11:49:31;10.23;;;8.57;;
18286;SDS011;9269;50.838;12.094;2023-02-28T11:52:06;9.47;;;8.23;;
18286;SDS011;9269;50.838;12.094;2023-02-28T11:57:47;9.83;;;8.00;;
18286;SDS011;9269;50.838;12.094;2023-02-28T12:00:37;9.43;;;8.00;;
18286;SDS011;9269;50.838;12.094;2023-02-28T12:03:16;10.47;;;9.37;;
18286;SDS011;9269;50.838;12.094;2023-02-28T12:05:57;10.17;;;8.17;;
18286;SDS011;9269;50.838;12.094;2023-02-28T12:08:45;9.27;;;8.20;;
18286;SDS011;9269;50.838;12.094;2023-02-28T12:11:24;10.10;;;8.43;;
18286;SDS011;9269;50.838;12.094;2023-02-28T12:14:12;9.30;;;8.10;;
18286;SDS011;9269;50.838;12.094;2023-02-28T12:17:08;8.73;;;7.83;;
18286;SDS011;9269;50.838;12.094;2023-02-28T12:19:45;9.13;;;8.20;;
18286;SDS011;9269;50.838;12.094;2023-02-28T12:22:27;10.40;;;8.77;;
18286;SDS011;9269;50.838;12.094;2023-02-28T12:27:49;9.47;;;8.47;;
18286;SDS011;9269;50.838;12.094;2023-02-28T12:30:21;9.33;;;8.33;;
18286;SDS011;9269;50.838;12.094;2023-02-28T12:32:55;9.30;;;8.20;;
18286;SDS011;9269;50.838;12.094;2023-02-28T12:35:34;9.37;;;7.87;;
18286;SDS011;9269;50.838;12.094;2023-02-28T12:38:08;9.73;;;7.80;;
18286;SDS011;9269;50.838;12.094;2023-02-28T12:40:42;9.67;;;7.90;;
18286;SDS011;9269;50.838;12.094;2023-02-28T12:43:15;11.63;;;9.67;;
18286;SDS011;9269;50.838;12.094;2023-02-28T12:45:46;11.07;;;9.33;;
18286;SDS011;9269;50.838;12.094;2023-02-28T12:48:20;12.10;;;10.60;;
18286;SDS011;9269;50.838;12.094;2023-02-28T12:50:55;12.43;;;8.97;;
18286;SDS011;9269;50.838;12.094;2023-02-28T12:53:25;10.47;;;9.37;;
18286;SDS011;9269;50.838;12.094;2023-02-28T12:56:05;10.20;;;9.13;;
18286;SDS011;9269;50.838;12.094;2023-02-28T12:58:41;12.07;;;9.80;;
18286;SDS011;9269;50.838;12.094;2023-02-28T13:01:26;10.03;;;9.03;;
18286;SDS011;9269;50.838;12.094;2023-02-28T13:04:13;10.30;;;9.30;;
18286;SDS011;9269;50.838;12.094;2023-02-28T13:10:09;10.87;;;8.93;;
18286;SDS011;9269;50.838;12.094;2023-02-28T13:12:41;10.30;;;9.03;;
18286;SDS011;9269;50.838;12.094;2023-02-28T13:15:18;11.40;;;8.87;;
18286;SDS011;9269;50.838;12.094;2023-02-28T13:17:51;11.03;;;9.07;;
18286;SDS011;9269;50.838;12.094;2023-02-28T13:20:23;9.60;;;8.37;;
18286;SDS011;9269;50.838;12.094;2023-02-28T13:22:53;10.30;;;9.30;;
18286;SDS011;9269;50.838;12.094;2023-02-28T13:31:26;10.17;;;9.07;;
18286;SDS011;9269;50.838;12.094;2023-02-28T13:34:05;9.80;;;8.57;;
18286;SDS011;9269;50.838;12.094;2023-02-28T13:36:41;10.13;;;8.97;;
18286;SDS011;9269;50.838;12.094;2023-02-28T13:42:30;11.93;;;9.27;;
18286;SDS011;9269;50.838;12.094;2023-02-28T13:45:20;11.13;;;9.27;;
18286;SDS011;9269;50.838;12.094;2023-02-28T13:47:58;24.90;;;16.07;;
18286;SDS011;9269;50.838;12.094;2023-02-28T13:50:29;32.73;;;20.93;;
18286;SDS011;9269;50.838;12.094;2023-02-28T13:56:09;28.87;;;19.80;;
18286;SDS011;9269;50.838;12.094;2023-02-28T13:58:57;12.17;;;10.37;;
18286;SDS011;9269;50.838;12.094;2023-02-28T14:01:38;14.27;;;12.77;;
18286;SDS011;9269;50.838;12.094;2023-02-28T14:07:29;12.00;;;9.87;;
18286;SDS011;9269;50.838;12.094;2023-02-28T14:10:03;10.93;;;9.60;;
18286;SDS011;9269;50.838;12.094;2023-02-28T14:15:30;11.07;;;9.00;;
18286;SDS011;9269;50.838;12.094;2023-02-28T14:18:19;9.33;;;8.33;;
18286;SDS011;9269;50.838;12.094;2023-02-28T14:20:54;9.50;;;8.50;;
18286;SDS011;9269;50.838;12.094;2023-02-28T14:23:31;10.50;;;8.70;;
18286;SDS011;9269;50.838;12.094;2023-02-28T14:26:27;11.53;;;10.33;;
18286;SDS011;9269;50.838;12.094;2023-02-28T14:29:08;12.80;;;10.33;;
18286;SDS011;9269;50.838;12.094;2023-02-28T14:31:53;11.57;;;8.80;;
18286;SDS011;9269;50.838;12.094;2023-02-28T14:34:31;10.77;;;9.67;;
18286;SDS011;9269;50.838;12.094;2023-02-28T14:37:09;10.03;;;8.63;;
18286;SDS011;9269;50.838;12.094;2023-02-28T14:39:43;12.37;;;9.97;;
18286;SDS011;9269;50.838;12.094;2023-02-28T14:42:27;10.70;;;9.60;;
18286;SDS011;9269;50.838;12.094;2023-02-28T14:44:57;12.73;;;11.43;;
18286;SDS011;9269;50.838;12.094;2023-02-28T14:47:27;13.50;;;11.77;;
18286;SDS011;9269;50.838;12.094;2023-02-28T14:49:59;11.63;;;10.53;;
18286;SDS011;9269;50.838;12.094;2023-02-28T14:52:29;10.40;;;9.40;;
18286;SDS011;9269;50.838;12.094;2023-02-28T14:55:00;11.00;;;9.90;;
18286;SDS011;9269;50.838;12.094;2023-02-28T14:57:32;12.83;;;11.50;;
18286;SDS011;9269;50.838;12.094;2023-02-28T15:00:03;12.27;;;10.20;;
18286;SDS011;9269;50.838;12.094;2023-02-28T15:02:39;12.43;;;10.10;;
18286;SDS011;9269;50.838;12.094;2023-02-28T15:05:25;11.50;;;10.30;;
18286;SDS011;9269;50.838;12.094;2023-02-28T15:08:05;12.93;;;10.23;;
18286;SDS011;9269;50.838;12.094;2023-02-28T15:10:38;12.73;;;10.13;;
18286;SDS011;9269;50.838;12.094;2023-02-28T15:13:10;11.47;;;10.27;;
18286;SDS011;9269;50.838;12.094;2023-02-28T15:15:43;11.80;;;9.67;;
18286;SDS011;9269;50.838;12.094;2023-02-28T15:18:33;12.80;;;11.53;;
18286;SDS011;9269;50.838;12.094;2023-02-28T15:21:11;11.27;;;10.17;;
18286;SDS011;9269;50.838;12.094;2023-02-28T15:23:45;13.13;;;10.43;;
18286;SDS011;9269;50.838;12.094;2023-02-28T15:26:19;11.60;;;10.40;;
18286;SDS011;9269;50.838;12.094;2023-02-28T15:28:57;12.50;;;9.80;;
18286;SDS011;9269;50.838;12.094;2023-02-28T15:31:28;11.67;;;10.33;;
18286;SDS011;9269;50.838;12.094;2023-02-28T15:34:19;15.27;;;10.67;;
18286;SDS011;9269;50.838;12.094;2023-02-28T15:36:50;10.83;;;9.73;;
18286;SDS011;9269;50.838;12.094;2023-02-28T15:39:19;12.57;;;10.40;;
18286;SDS011;9269;50.838;12.094;2023-02-28T15:41:49;13.20;;;10.40;;
18286;SDS011;9269;50.838;12.094;2023-02-28T15:44:25;13.57;;;10.30;;
18286;SDS011;9269;50.838;12.094;2023-02-28T15:46:57;14.50;;;11.77;;
18286;SDS011;9269;50.838;12.094;2023-02-28T15:49:32;13.00;;;10.97;;